createdAt,value
2018-01-07T00:00:14.209Z,0.00
2018-01-07T00:01:14.180Z,0.00
2018-01-07T00:02:14.161Z,0.00
2018-01-07T00:03:14.139Z,0.00
2018-01-07T00:04:14.114Z,0.00
2018-01-07T00:05:14.100Z,0.00
2018-01-07T00:06:14.075Z,0.00
2018-01-07T00:07:14.054Z,0.00
2018-01-07T00:08:14.033Z,0.00
2018-01-07T00:09:14.011Z,0.00
2018-01-07T00:10:13.987Z,0.00
2018-01-07T00:11:13.962Z,0.00
2018-01-07T00:12:13.939Z,0.00
2018-01-07T00:13:13.920Z,0.00
2018-01-07T00:14:13.901Z,0.00
2018-01-07T00:15:13.875Z,0.00
2018-01-07T00:16:13.860Z,0.00
2018-01-07T00:17:13.832Z,0.00
2018-01-07T00:18:13.812Z,0.00
2018-01-07T00:19:13.789Z,0.00
2018-01-07T00:20:13.769Z,0.00
2018-01-07T00:21:13.748Z,0.00
2018-01-07T00:22:13.727Z,0.00
2018-01-07T00:23:13.705Z,0.00
2018-01-07T00:24:13.676Z,0.00
2018-01-07T00:25:13.660Z,0.00
2018-01-07T00:26:13.644Z,0.00
2018-01-07T00:27:13.625Z,0.00
2018-01-07T00:28:13.590Z,0.00
2018-01-07T00:29:13.570Z,0.00
2018-01-07T00:30:13.549Z,0.00
2018-01-07T00:31:13.528Z,0.00
2018-01-07T00:32:13.509Z,0.00
2018-01-07T00:33:13.490Z,0.00
2018-01-07T00:34:13.470Z,0.00
2018-01-07T00:35:13.444Z,0.00
2018-01-07T00:36:13.423Z,0.00
2018-01-07T00:37:13.401Z,0.00
2018-01-07T00:38:13.374Z,0.00
2018-01-07T00:39:13.363Z,0.00
2018-01-07T00:40:13.333Z,0.00
2018-01-07T00:41:13.312Z,0.00
2018-01-07T00:42:13.288Z,0.00
2018-01-07T00:43:13.265Z,0.00
2018-01-07T00:44:13.247Z,0.00
2018-01-07T00:45:13.225Z,0.00
2018-01-07T00:46:13.203Z,0.00
2018-01-07T00:47:13.177Z,0.00
2018-01-07T00:48:13.158Z,0.00
2018-01-07T00:49:13.139Z,0.00
2018-01-07T00:50:13.122Z,0.00
2018-01-07T00:51:13.087Z,0.00
2018-01-07T00:52:13.069Z,0.00
2018-01-07T00:53:13.047Z,0.00
2018-01-07T00:54:13.025Z,0.00
2018-01-07T00:55:13.001Z,0.00
2018-01-07T00:56:12.986Z,0.00
2018-01-07T00:57:12.959Z,0.00
2018-01-07T00:58:12.938Z,0.00
2018-01-07T00:59:12.915Z,0.00
2018-01-07T01:00:12.899Z,0.00
2018-01-07T01:01:12.876Z,0.00
2018-01-07T01:02:12.848Z,0.00
2018-01-07T01:03:12.826Z,0.00
2018-01-07T01:04:12.807Z,0.00
2018-01-07T01:05:12.787Z,0.00
2018-01-07T01:06:12.765Z,0.00
2018-01-07T01:07:12.741Z,0.00
2018-01-07T01:08:12.717Z,0.00
2018-01-07T01:09:12.701Z,0.00
2018-01-07T01:10:12.677Z,0.00
2018-01-07T01:11:12.652Z,0.00
2018-01-07T01:12:12.631Z,0.00
2018-01-07T01:13:12.611Z,0.00
2018-01-07T01:14:12.598Z,0.00
2018-01-07T01:15:12.567Z,0.00
2018-01-07T01:16:12.550Z,0.00
2018-01-07T01:17:12.536Z,0.00
2018-01-07T01:18:12.499Z,0.00
2018-01-07T01:19:12.488Z,0.00
2018-01-07T01:20:12.454Z,0.00
2018-01-07T01:21:12.437Z,0.00
2018-01-07T01:22:12.428Z,0.00
2018-01-07T01:23:12.391Z,0.00
2018-01-07T01:24:12.373Z,0.00
2018-01-07T01:25:12.354Z,0.00
2018-01-07T01:26:12.327Z,0.00
2018-01-07T01:27:12.302Z,0.00
2018-01-07T01:28:12.280Z,0.00
2018-01-07T01:29:12.264Z,0.00
2018-01-07T01:30:12.241Z,0.00
2018-01-07T01:31:12.220Z,0.00
2018-01-07T01:32:12.200Z,0.00
2018-01-07T01:33:12.172Z,0.00
2018-01-07T01:34:12.150Z,0.00
2018-01-07T01:35:12.136Z,0.00
2018-01-07T01:36:12.108Z,0.00
2018-01-07T01:37:12.095Z,0.00
2018-01-07T01:38:12.062Z,0.00
2018-01-07T01:39:12.047Z,0.00
2018-01-07T01:40:12.020Z,0.00
2018-01-07T01:41:12.013Z,0.00
2018-01-07T01:42:11.980Z,0.00
2018-01-07T01:43:11.952Z,0.00
2018-01-07T01:44:11.939Z,0.00
2018-01-07T01:45:11.914Z,0.00
2018-01-07T01:46:11.890Z,0.00
2018-01-07T01:47:11.876Z,0.00
2018-01-07T01:48:11.843Z,0.00
2018-01-07T01:49:11.828Z,0.00
2018-01-07T01:50:11.802Z,0.00
2018-01-07T01:51:11.782Z,0.00
2018-01-07T01:52:11.763Z,0.00
2018-01-07T01:53:11.738Z,0.00
2018-01-07T01:54:11.718Z,0.00
2018-01-07T01:55:11.692Z,0.00
2018-01-07T01:56:11.673Z,0.00
2018-01-07T01:57:11.649Z,0.00
2018-01-07T01:58:11.631Z,0.00
2018-01-07T01:59:11.604Z,0.00
2018-01-07T02:00:11.580Z,0.00
2018-01-07T02:01:11.559Z,0.00
2018-01-07T02:02:11.538Z,0.00
2018-01-07T02:03:11.520Z,0.00
2018-01-07T02:04:11.502Z,0.00
2018-01-07T02:05:11.481Z,0.00
2018-01-07T02:06:11.451Z,0.00
2018-01-07T02:07:11.430Z,0.00
2018-01-07T02:08:11.407Z,0.00
2018-01-07T02:09:11.390Z,0.00
2018-01-07T02:10:11.366Z,0.00
2018-01-07T02:11:11.342Z,0.00
2018-01-07T02:12:11.329Z,0.00
2018-01-07T02:13:11.300Z,0.00
2018-01-07T02:14:11.278Z,0.00
2018-01-07T02:15:11.256Z,0.00
2018-01-07T02:16:11.245Z,0.00
2018-01-07T02:17:11.214Z,0.00
2018-01-07T02:18:11.191Z,0.00
2018-01-07T02:19:11.167Z,0.00
2018-01-07T02:20:11.151Z,0.00
2018-01-07T02:21:11.125Z,0.00
2018-01-07T02:22:11.107Z,0.00
2018-01-07T02:23:11.080Z,0.00
2018-01-07T02:24:11.060Z,0.00
2018-01-07T02:25:11.036Z,0.00
2018-01-07T02:26:11.016Z,0.00
2018-01-07T02:27:10.992Z,0.00
2018-01-07T02:28:10.979Z,0.00
2018-01-07T02:29:10.949Z,0.00
2018-01-07T02:30:10.930Z,0.00
2018-01-07T02:31:10.909Z,0.00
2018-01-07T02:32:10.891Z,0.00
2018-01-07T02:33:10.871Z,0.00
2018-01-07T02:34:10.842Z,0.00
2018-01-07T02:35:10.827Z,0.00
2018-01-07T02:36:10.794Z,0.00
2018-01-07T02:37:10.779Z,0.00
2018-01-07T02:38:10.755Z,0.00
2018-01-07T02:39:10.733Z,0.00
2018-01-07T02:40:10.714Z,0.00
2018-01-07T02:41:10.690Z,0.00
2018-01-07T02:42:10.672Z,0.00
2018-01-07T02:43:10.646Z,0.00
2018-01-07T02:44:10.620Z,0.00
2018-01-07T02:45:10.604Z,0.00
2018-01-07T02:46:10.580Z,0.00
2018-01-07T02:47:10.556Z,0.00
2018-01-07T02:48:10.532Z,0.00
2018-01-07T02:49:10.546Z,0.00
2018-01-07T02:50:10.490Z,0.00
2018-01-07T02:51:10.476Z,0.00
2018-01-07T02:52:10.445Z,0.00
2018-01-07T02:53:10.422Z,0.00
2018-01-07T02:54:10.406Z,0.00
2018-01-07T02:55:10.380Z,0.00
2018-01-07T02:56:10.358Z,0.00
2018-01-07T02:57:10.339Z,0.00
2018-01-07T02:58:10.318Z,0.00
2018-01-07T02:59:10.294Z,0.00
2018-01-07T03:00:10.271Z,0.00
2018-01-07T03:01:10.248Z,0.00
2018-01-07T03:02:10.232Z,0.00
2018-01-07T03:03:10.202Z,0.00
2018-01-07T03:04:10.179Z,0.00
2018-01-07T03:05:10.159Z,0.00
2018-01-07T03:06:10.136Z,0.00
2018-01-07T03:07:10.119Z,0.00
2018-01-07T03:08:10.098Z,0.00
2018-01-07T03:09:10.071Z,0.00
2018-01-07T03:10:10.048Z,0.00
2018-01-07T03:11:10.028Z,0.00
2018-01-07T03:12:10.008Z,0.00
2018-01-07T03:13:09.986Z,0.00
2018-01-07T03:14:09.963Z,0.00
2018-01-07T03:15:09.938Z,0.00
2018-01-07T03:16:09.921Z,0.00
2018-01-07T03:17:09.900Z,0.00
2018-01-07T03:18:09.872Z,0.00
2018-01-07T03:19:09.849Z,0.00
2018-01-07T03:20:09.830Z,0.00
2018-01-07T03:21:09.819Z,0.00
2018-01-07T03:22:09.785Z,0.00
2018-01-07T03:23:09.762Z,0.00
2018-01-07T03:24:09.743Z,0.00
2018-01-07T03:25:09.719Z,0.00
2018-01-07T03:26:09.697Z,0.00
2018-01-07T03:27:09.674Z,0.00
2018-01-07T03:28:09.659Z,0.00
2018-01-07T03:29:09.635Z,0.00
2018-01-07T03:30:09.612Z,0.00
2018-01-07T03:31:09.596Z,0.00
2018-01-07T03:32:09.569Z,0.00
2018-01-07T03:33:09.564Z,0.00
2018-01-07T03:34:09.523Z,0.00
2018-01-07T03:35:09.499Z,0.00
2018-01-07T03:36:09.480Z,0.00
2018-01-07T03:37:09.458Z,0.00
2018-01-07T03:38:09.437Z,0.00
2018-01-07T03:39:09.413Z,0.00
2018-01-07T03:40:09.392Z,0.00
2018-01-07T03:41:09.370Z,0.00
2018-01-07T03:42:09.347Z,0.00
2018-01-07T03:43:09.324Z,0.00
2018-01-07T03:44:09.304Z,0.00
2018-01-07T03:45:09.288Z,0.00
2018-01-07T03:46:09.261Z,0.00
2018-01-07T03:47:09.239Z,0.00
2018-01-07T03:48:09.216Z,0.00
2018-01-07T03:49:09.198Z,0.00
2018-01-07T03:50:09.171Z,0.00
2018-01-07T03:51:09.149Z,0.00
2018-01-07T03:52:09.127Z,0.00
2018-01-07T03:53:09.110Z,0.00
2018-01-07T03:54:09.087Z,0.00
2018-01-07T03:55:09.062Z,0.00
2018-01-07T03:56:09.039Z,0.00
2018-01-07T03:57:09.020Z,0.00
2018-01-07T03:58:09.012Z,0.00
2018-01-07T03:59:08.975Z,0.00
2018-01-07T04:00:08.949Z,0.00
2018-01-07T04:01:08.927Z,0.00
2018-01-07T04:02:08.906Z,0.00
2018-01-07T04:03:08.886Z,0.00
2018-01-07T04:04:08.864Z,0.00
2018-01-07T04:05:08.841Z,0.00
2018-01-07T04:06:08.818Z,0.00
2018-01-07T04:07:08.801Z,0.00
2018-01-07T04:08:08.776Z,0.00
2018-01-07T04:09:08.752Z,0.00
2018-01-07T04:10:08.730Z,0.00
2018-01-07T04:11:08.706Z,0.00
2018-01-07T04:12:08.686Z,0.00
2018-01-07T04:13:08.665Z,0.00
2018-01-07T04:14:08.641Z,0.00
2018-01-07T04:15:08.617Z,0.00
2018-01-07T04:16:08.599Z,0.00
2018-01-07T04:17:08.575Z,0.00
2018-01-07T04:18:08.553Z,0.00
2018-01-07T04:19:08.531Z,0.00
2018-01-07T04:20:08.513Z,0.00
2018-01-07T04:21:08.491Z,0.00
2018-01-07T04:22:08.468Z,0.00
2018-01-07T04:23:08.443Z,0.00
2018-01-07T04:24:08.423Z,0.00
2018-01-07T04:25:08.399Z,0.00
2018-01-07T04:26:08.377Z,0.00
2018-01-07T04:27:08.355Z,0.00
2018-01-07T04:28:08.337Z,0.00
2018-01-07T04:29:08.310Z,0.00
2018-01-07T04:30:08.290Z,0.00
2018-01-07T04:31:08.269Z,0.00
2018-01-07T04:32:08.243Z,0.00
2018-01-07T04:33:08.221Z,0.00
2018-01-07T04:34:08.200Z,0.00
2018-01-07T04:35:08.180Z,0.00
2018-01-07T04:36:08.157Z,0.00
2018-01-07T04:37:08.136Z,0.00
2018-01-07T04:38:08.109Z,0.00
2018-01-07T04:39:08.093Z,0.00
2018-01-07T04:40:08.074Z,0.00
2018-01-07T04:41:08.089Z,0.00
2018-01-07T04:42:08.025Z,0.00
2018-01-07T04:43:08.001Z,0.00
2018-01-07T04:44:07.980Z,0.00
2018-01-07T04:45:07.958Z,0.00
2018-01-07T04:46:07.940Z,0.00
2018-01-07T04:47:07.917Z,0.00
2018-01-07T04:48:07.891Z,0.00
2018-01-07T04:49:07.869Z,0.00
2018-01-07T04:50:07.845Z,0.00
2018-01-07T04:51:07.823Z,0.00
2018-01-07T04:52:07.801Z,0.00
2018-01-07T04:53:07.779Z,0.00
2018-01-07T04:54:07.759Z,0.00
2018-01-07T04:55:07.736Z,0.00
2018-01-07T04:56:07.715Z,0.00
2018-01-07T04:57:07.706Z,0.00
2018-01-07T04:58:07.669Z,0.00
2018-01-07T04:59:07.651Z,0.00
2018-01-07T05:00:07.628Z,0.00
2018-01-07T05:01:07.604Z,0.00
2018-01-07T05:02:07.582Z,0.00
2018-01-07T05:03:07.562Z,0.00
2018-01-07T05:04:07.540Z,0.00
2018-01-07T05:05:07.517Z,0.00
2018-01-07T05:06:07.492Z,0.00
2018-01-07T05:07:07.469Z,0.00
2018-01-07T05:08:07.453Z,0.00
2018-01-07T05:09:07.426Z,0.00
2018-01-07T05:10:07.405Z,0.00
2018-01-07T05:11:07.395Z,0.00
2018-01-07T05:12:07.364Z,0.00
2018-01-07T05:13:07.339Z,0.00
2018-01-07T05:14:07.318Z,0.00
2018-01-07T05:15:07.298Z,0.00
2018-01-07T05:16:07.270Z,0.00
2018-01-07T05:17:07.250Z,0.00
2018-01-07T05:18:07.228Z,0.00
2018-01-07T05:19:07.203Z,0.00
2018-01-07T05:20:07.184Z,0.00
2018-01-07T05:21:07.163Z,0.00
2018-01-07T05:22:07.137Z,0.00
2018-01-07T05:23:07.115Z,0.00
2018-01-07T05:24:07.096Z,0.00
2018-01-07T05:25:07.073Z,0.00
2018-01-07T05:26:07.049Z,0.00
2018-01-07T05:27:07.036Z,0.00
2018-01-07T05:28:07.005Z,0.00
2018-01-07T05:29:06.985Z,0.00
2018-01-07T05:30:06.965Z,0.00
2018-01-07T05:31:06.940Z,0.00
2018-01-07T05:32:06.917Z,0.00
2018-01-07T05:33:06.897Z,0.00
2018-01-07T05:34:06.885Z,0.00
2018-01-07T05:35:06.849Z,0.00
2018-01-07T05:36:06.829Z,0.00
2018-01-07T05:37:06.804Z,0.00
2018-01-07T05:38:06.790Z,0.00
2018-01-07T05:39:06.759Z,0.00
2018-01-07T05:40:06.740Z,0.00
2018-01-07T05:41:06.719Z,0.00
2018-01-07T05:42:06.694Z,0.00
2018-01-07T05:43:06.672Z,0.00
2018-01-07T05:44:06.649Z,0.00
2018-01-07T05:45:06.628Z,0.00
2018-01-07T05:46:06.607Z,0.00
2018-01-07T05:47:06.584Z,0.00
2018-01-07T05:48:06.560Z,0.00
2018-01-07T05:49:06.540Z,0.00
2018-01-07T05:50:06.520Z,0.00
2018-01-07T05:51:06.500Z,0.00
2018-01-07T05:52:06.477Z,0.00
2018-01-07T05:53:06.449Z,0.00
2018-01-07T05:54:06.427Z,0.00
2018-01-07T05:55:06.412Z,0.00
2018-01-07T05:56:06.382Z,0.00
2018-01-07T05:57:06.360Z,0.00
2018-01-07T05:58:06.337Z,0.00
2018-01-07T05:59:06.316Z,0.00
2018-01-07T06:00:06.298Z,0.00
2018-01-07T06:01:06.272Z,0.00
2018-01-07T06:02:06.254Z,0.00
2018-01-07T06:03:06.226Z,0.00
2018-01-07T06:04:06.205Z,0.00
2018-01-07T06:05:06.186Z,0.00
2018-01-07T06:06:06.159Z,0.00
2018-01-07T06:07:06.141Z,0.00
2018-01-07T06:08:06.114Z,0.00
2018-01-07T06:09:06.106Z,0.00
2018-01-07T06:10:06.069Z,0.00
2018-01-07T06:11:06.047Z,0.00
2018-01-07T06:12:06.024Z,0.00
2018-01-07T06:13:06.000Z,0.00
2018-01-07T06:14:05.988Z,0.00
2018-01-07T06:15:05.956Z,0.00
2018-01-07T06:16:05.937Z,0.00
2018-01-07T06:17:05.910Z,0.00
2018-01-07T06:18:05.890Z,0.00
2018-01-07T06:19:05.868Z,0.00
2018-01-07T06:20:05.845Z,0.00
2018-01-07T06:21:05.819Z,0.00
2018-01-07T06:22:05.800Z,0.00
2018-01-07T06:23:05.783Z,0.00
2018-01-07T06:24:05.755Z,0.00
2018-01-07T06:25:05.730Z,0.00
2018-01-07T06:26:05.713Z,0.00
2018-01-07T06:27:05.685Z,0.00
2018-01-07T06:28:05.665Z,0.00
2018-01-07T06:29:05.640Z,0.00
2018-01-07T06:30:05.618Z,0.00
2018-01-07T06:31:05.599Z,0.00
2018-01-07T06:32:05.573Z,0.00
2018-01-07T06:33:05.551Z,0.00
2018-01-07T06:34:05.536Z,0.00
2018-01-07T06:35:05.506Z,0.00
2018-01-07T06:36:05.485Z,0.00
2018-01-07T06:37:05.464Z,0.00
2018-01-07T06:38:05.440Z,0.00
2018-01-07T06:39:05.414Z,0.00
2018-01-07T06:40:05.402Z,0.00
2018-01-07T06:41:05.369Z,0.00
2018-01-07T06:42:05.350Z,0.00
2018-01-07T06:43:05.328Z,0.00
2018-01-07T06:44:05.302Z,0.00
2018-01-07T06:45:05.281Z,0.00
2018-01-07T06:46:05.264Z,0.00
2018-01-07T06:47:05.238Z,0.00
2018-01-07T06:48:05.211Z,0.00
2018-01-07T06:49:05.191Z,0.00
2018-01-07T06:50:05.167Z,0.00
2018-01-07T06:51:05.143Z,0.00
2018-01-07T06:52:05.119Z,0.00
2018-01-07T06:53:05.096Z,0.00
2018-01-07T06:54:05.080Z,0.00
2018-01-07T06:55:05.057Z,0.00
2018-01-07T06:56:05.038Z,0.00
2018-01-07T06:57:05.010Z,0.00
2018-01-07T06:58:04.986Z,0.00
2018-01-07T06:59:04.963Z,0.00
2018-01-07T07:00:04.939Z,0.00
2018-01-07T07:01:04.918Z,0.00
2018-01-07T07:02:04.899Z,0.00
2018-01-07T07:03:04.881Z,0.00
2018-01-07T07:04:04.850Z,0.00
2018-01-07T07:05:04.826Z,0.00
2018-01-07T07:06:04.812Z,0.00
2018-01-07T07:07:04.781Z,0.00
2018-01-07T07:08:04.763Z,0.00
2018-01-07T07:09:04.748Z,0.00
2018-01-07T07:10:04.716Z,0.00
2018-01-07T07:11:04.691Z,0.00
2018-01-07T07:12:04.670Z,0.00
2018-01-07T07:13:04.645Z,0.00
2018-01-07T07:14:04.629Z,0.00
2018-01-07T07:15:04.600Z,0.00
2018-01-07T07:16:04.574Z,4.00
2018-01-07T07:17:04.552Z,0.00
2018-01-07T07:18:04.531Z,0.00
2018-01-07T07:19:04.510Z,0.00
2018-01-07T07:20:04.485Z,4.00
2018-01-07T07:21:04.461Z,4.00
2018-01-07T07:22:04.438Z,0.00
2018-01-07T07:23:04.415Z,0.00
2018-01-07T07:24:04.399Z,4.00
2018-01-07T07:25:04.370Z,4.00
2018-01-07T07:26:04.351Z,0.00
2018-01-07T07:27:04.322Z,4.00
2018-01-07T07:28:04.304Z,4.00
2018-01-07T07:29:04.280Z,4.00
2018-01-07T07:30:04.254Z,4.00
2018-01-07T07:31:04.230Z,8.00
2018-01-07T07:32:04.210Z,4.00
2018-01-07T07:33:04.185Z,8.00
2018-01-07T07:34:04.168Z,8.00
2018-01-07T07:35:04.141Z,8.00
2018-01-07T07:36:04.118Z,8.00
2018-01-07T07:37:04.096Z,8.00
2018-01-07T07:38:04.070Z,12.00
2018-01-07T07:39:04.048Z,12.00
2018-01-07T07:40:04.094Z,12.00
2018-01-07T07:41:04.013Z,12.00
2018-01-07T07:42:03.981Z,12.00
2018-01-07T07:43:03.960Z,12.00
2018-01-07T07:44:03.935Z,12.00
2018-01-07T07:45:03.910Z,16.00
2018-01-07T07:46:03.889Z,16.00
2018-01-07T07:47:03.866Z,16.00
2018-01-07T07:48:03.842Z,20.00
2018-01-07T07:49:03.818Z,16.00
2018-01-07T07:50:03.798Z,20.00
2018-01-07T07:51:03.771Z,20.00
2018-01-07T07:52:03.751Z,20.00
2018-01-07T07:53:03.728Z,20.00
2018-01-07T07:54:03.706Z,24.00
2018-01-07T07:55:03.681Z,20.00
2018-01-07T07:56:03.659Z,20.00
2018-01-07T07:57:03.638Z,24.00
2018-01-07T07:58:03.613Z,24.00
2018-01-07T07:59:03.591Z,24.00
2018-01-07T08:00:03.625Z,28.00
2018-01-07T08:01:03.545Z,28.00
2018-01-07T08:02:03.521Z,28.00
2018-01-07T08:03:03.500Z,28.00
2018-01-07T08:04:03.477Z,32.00
2018-01-07T08:05:03.450Z,32.00
2018-01-07T08:06:03.432Z,32.00
2018-01-07T08:07:03.410Z,32.00
2018-01-07T08:08:03.386Z,36.00
2018-01-07T08:09:03.360Z,40.00
2018-01-07T08:10:03.339Z,40.00
2018-01-07T08:11:03.315Z,40.00
2018-01-07T08:12:03.289Z,40.00
2018-01-07T08:13:03.265Z,44.00
2018-01-07T08:14:03.246Z,44.00
2018-01-07T08:15:03.221Z,44.00
2018-01-07T08:16:03.200Z,48.00
2018-01-07T08:17:03.181Z,48.00
2018-01-07T08:18:03.158Z,48.00
2018-01-07T08:19:03.130Z,52.00
2018-01-07T08:20:03.117Z,52.00
2018-01-07T08:21:03.090Z,52.00
2018-01-07T08:22:03.061Z,52.00
2018-01-07T08:23:03.038Z,52.00
2018-01-07T08:24:03.014Z,56.00
2018-01-07T08:25:02.991Z,56.00
2018-01-07T08:26:02.972Z,56.00
2018-01-07T08:27:02.949Z,60.00
2018-01-07T08:28:02.926Z,60.00
2018-01-07T08:29:02.900Z,60.00
2018-01-07T08:30:02.877Z,64.00
2018-01-07T08:31:02.860Z,68.00
2018-01-07T08:32:02.829Z,68.00
2018-01-07T08:33:02.811Z,68.00
2018-01-07T08:34:02.785Z,72.00
2018-01-07T08:35:02.763Z,72.00
2018-01-07T08:36:02.736Z,76.00
2018-01-07T08:37:02.720Z,80.00
2018-01-07T08:38:02.696Z,80.00
2018-01-07T08:39:02.671Z,84.00
2018-01-07T08:40:02.648Z,88.00
2018-01-07T08:41:02.625Z,92.00
2018-01-07T08:42:02.600Z,96.00
2018-01-07T08:43:02.577Z,92.00
2018-01-07T08:44:02.561Z,92.00
2018-01-07T08:45:02.544Z,96.00
2018-01-07T08:46:02.510Z,96.00
2018-01-07T08:47:02.492Z,100.00
2018-01-07T08:48:02.466Z,100.00
2018-01-07T08:49:02.440Z,100.00
2018-01-07T08:50:02.418Z,108.00
2018-01-07T08:51:02.395Z,112.00
2018-01-07T08:52:02.370Z,120.00
2018-01-07T08:53:02.350Z,120.00
2018-01-07T08:54:02.324Z,128.00
2018-01-07T08:55:02.303Z,124.00
2018-01-07T08:56:02.276Z,132.00
2018-01-07T08:57:02.261Z,140.00
2018-01-07T08:58:02.239Z,140.00
2018-01-07T08:59:02.210Z,148.00
2018-01-07T09:00:02.185Z,152.00
2018-01-07T09:01:02.186Z,148.00
2018-01-07T09:02:02.143Z,152.00
2018-01-07T09:03:02.116Z,156.00
2018-01-07T09:04:02.100Z,160.00
2018-01-07T09:05:02.070Z,164.00
2018-01-07T09:06:02.049Z,172.00
2018-01-07T09:07:02.037Z,172.00
2018-01-07T09:08:02.000Z,176.00
2018-01-07T09:09:01.982Z,180.00
2018-01-07T09:10:01.962Z,180.00
2018-01-07T09:11:01.949Z,184.00
2018-01-07T09:12:01.910Z,184.00
2018-01-07T09:13:01.886Z,192.00
2018-01-07T09:14:01.861Z,192.00
2018-01-07T09:15:01.843Z,200.00
2018-01-07T09:16:01.830Z,204.00
2018-01-07T09:17:01.807Z,208.00
2018-01-07T09:18:01.774Z,208.00
2018-01-07T09:19:01.744Z,208.00
2018-01-07T09:20:01.743Z,208.00
2018-01-07T09:21:01.702Z,208.00
2018-01-07T09:22:01.690Z,208.00
2018-01-07T09:23:01.654Z,208.00
2018-01-07T09:24:01.635Z,216.00
2018-01-07T09:25:01.608Z,224.00
2018-01-07T09:26:01.593Z,212.00
2018-01-07T09:27:01.561Z,224.00
2018-01-07T09:28:01.537Z,244.00
2018-01-07T09:29:01.517Z,232.00
2018-01-07T09:30:01.496Z,236.00
2018-01-07T09:31:01.470Z,248.00
2018-01-07T09:32:01.447Z,236.00
2018-01-07T09:33:01.425Z,232.00
2018-01-07T09:34:01.400Z,236.00
2018-01-07T09:35:01.376Z,260.00
2018-01-07T09:36:01.352Z,280.00
2018-01-07T09:37:01.333Z,256.00
2018-01-07T09:38:01.306Z,260.00
2018-01-07T09:39:01.282Z,252.00
2018-01-07T09:40:01.260Z,268.00
2018-01-07T09:41:01.243Z,260.00
2018-01-07T09:42:01.214Z,256.00
2018-01-07T09:43:01.198Z,272.00
2018-01-07T09:44:01.171Z,248.00
2018-01-07T09:45:01.149Z,260.00
2018-01-07T09:46:01.123Z,256.00
2018-01-07T09:47:01.098Z,312.00
2018-01-07T09:48:01.081Z,288.00
2018-01-07T09:49:01.048Z,280.00
2018-01-07T09:50:01.045Z,280.00
2018-01-07T09:51:01.003Z,300.00
2018-01-07T09:52:00.979Z,280.00
2018-01-07T09:53:00.960Z,284.00
2018-01-07T09:54:00.938Z,292.00
2018-01-07T09:55:00.910Z,324.00
2018-01-07T09:56:00.892Z,320.00
2018-01-07T09:57:00.871Z,324.00
2018-01-07T09:58:00.845Z,304.00
2018-01-07T09:59:00.818Z,376.00
2018-01-07T10:00:00.797Z,388.00
2018-01-07T10:01:00.770Z,380.00
2018-01-07T10:02:00.749Z,376.00
2018-01-07T10:03:00.731Z,348.00
2018-01-07T10:04:00.701Z,372.00
2018-01-07T10:05:00.682Z,420.00
2018-01-07T10:06:00.663Z,444.00
2018-01-07T10:07:00.639Z,424.00
2018-01-07T10:08:00.608Z,352.00
2018-01-07T10:09:00.590Z,440.00
2018-01-07T10:10:00.572Z,500.00
2018-01-07T10:11:00.550Z,444.00
2018-01-07T10:12:00.517Z,372.00
2018-01-07T10:13:00.500Z,452.00
2018-01-07T10:14:00.478Z,408.00
2018-01-07T10:15:00.452Z,464.00
2018-01-07T10:16:00.430Z,500.00
2018-01-07T10:17:00.403Z,528.00
2018-01-07T10:18:00.382Z,560.00
2018-01-07T10:19:00.359Z,500.00
2018-01-07T10:20:00.335Z,460.00
2018-01-07T10:21:00.326Z,464.00
2018-01-07T10:22:00.291Z,412.00
2018-01-07T10:23:00.264Z,424.00
2018-01-07T10:24:00.240Z,592.00
2018-01-07T10:25:00.215Z,496.00
2018-01-07T10:26:00.203Z,480.00
2018-01-07T10:27:00.174Z,536.00
2018-01-07T10:28:00.152Z,616.00
2018-01-07T10:29:00.128Z,632.00
2018-01-07T10:30:00.103Z,456.00
2018-01-07T10:31:00.085Z,548.00
2018-01-07T10:32:00.062Z,456.00
2018-01-07T10:33:00.036Z,416.00
2018-01-07T10:34:00.016Z,456.00
2018-01-07T10:34:59.991Z,436.00
2018-01-07T10:35:59.970Z,460.00
2018-01-07T10:36:59.940Z,392.00
2018-01-07T10:37:59.921Z,500.00
2018-01-07T10:38:59.900Z,472.00
2018-01-07T10:39:59.874Z,452.00
2018-01-07T10:40:59.862Z,372.00
2018-01-07T10:41:59.827Z,516.00
2018-01-07T10:42:59.804Z,568.00
2018-01-07T10:43:59.780Z,352.00
2018-01-07T10:44:59.766Z,584.00
2018-01-07T10:45:59.741Z,336.00
2018-01-07T10:46:59.712Z,488.00
2018-01-07T10:47:59.701Z,468.00
2018-01-07T10:48:59.669Z,464.00
2018-01-07T10:49:59.644Z,496.00
2018-01-07T10:50:59.621Z,404.00
2018-01-07T10:51:59.603Z,544.00
2018-01-07T10:52:59.579Z,420.00
2018-01-07T10:53:59.557Z,264.00
2018-01-07T10:54:59.531Z,256.00
2018-01-07T10:55:59.513Z,332.00
2018-01-07T10:56:59.480Z,332.00
2018-01-07T10:57:59.461Z,380.00
2018-01-07T10:58:59.445Z,384.00
2018-01-07T10:59:59.418Z,448.00
2018-01-07T11:00:59.390Z,424.00
2018-01-07T11:01:59.374Z,372.00
2018-01-07T11:02:59.349Z,440.00
2018-01-07T11:03:59.327Z,468.00
2018-01-07T11:04:59.349Z,384.00
2018-01-07T11:05:59.277Z,344.00
2018-01-07T11:06:59.255Z,344.00
2018-01-07T11:07:59.234Z,396.00
2018-01-07T11:08:59.209Z,384.00
2018-01-07T11:09:59.182Z,324.00
2018-01-07T11:10:59.158Z,432.00
2018-01-07T11:11:59.134Z,556.00
2018-01-07T11:12:59.113Z,420.00
2018-01-07T11:13:59.095Z,508.00
2018-01-07T11:14:59.073Z,476.00
2018-01-07T11:15:59.047Z,540.00
2018-01-07T11:16:59.032Z,604.00
2018-01-07T11:17:58.999Z,328.00
2018-01-07T11:18:58.975Z,424.00
2018-01-07T11:19:58.951Z,592.00
2018-01-07T11:20:58.930Z,324.00
2018-01-07T11:21:58.917Z,448.00
2018-01-07T11:22:58.886Z,492.00
2018-01-07T11:23:58.869Z,584.00
2018-01-07T11:24:58.858Z,420.00
2018-01-07T11:25:58.820Z,460.00
2018-01-07T11:26:58.795Z,588.00
2018-01-07T11:27:58.772Z,596.00
2018-01-07T11:28:58.753Z,580.00
2018-01-07T11:29:58.731Z,560.00
2018-01-07T11:30:58.703Z,544.00
2018-01-07T11:31:58.680Z,636.00
2018-01-07T11:32:58.658Z,352.00
2018-01-07T11:33:58.633Z,372.00
2018-01-07T11:34:58.617Z,304.00
2018-01-07T11:35:58.588Z,656.00
2018-01-07T11:36:58.574Z,688.00
2018-01-07T11:37:58.539Z,340.00
2018-01-07T11:38:58.524Z,656.00
2018-01-07T11:39:58.497Z,360.00
2018-01-07T11:40:58.488Z,632.00
2018-01-07T11:41:58.459Z,632.00
2018-01-07T11:42:58.428Z,612.00
2018-01-07T11:43:58.411Z,632.00
2018-01-07T11:44:58.386Z,280.00
2018-01-07T11:45:58.362Z,620.00
2018-01-07T11:46:58.341Z,340.00
2018-01-07T11:47:58.312Z,488.00
2018-01-07T11:48:58.293Z,500.00
2018-01-07T11:49:58.281Z,612.00
2018-01-07T11:50:58.244Z,604.00
2018-01-07T11:51:58.228Z,632.00
2018-01-07T11:52:58.200Z,636.00
2018-01-07T11:53:58.180Z,672.00
2018-01-07T11:54:58.156Z,632.00
2018-01-07T11:55:58.141Z,624.00
2018-01-07T11:56:58.157Z,616.00
2018-01-07T11:57:58.088Z,628.00
2018-01-07T11:58:58.060Z,632.00
2018-01-07T11:59:58.055Z,628.00
2018-01-07T12:00:58.016Z,364.00
2018-01-07T12:01:57.996Z,648.00
2018-01-07T12:02:57.973Z,632.00
2018-01-07T12:03:57.954Z,668.00
2018-01-07T12:04:57.929Z,624.00
2018-01-07T12:05:57.901Z,396.00
2018-01-07T12:06:57.880Z,576.00
2018-01-07T12:07:57.855Z,320.00
2018-01-07T12:08:57.838Z,536.00
2018-01-07T12:09:57.812Z,568.00
2018-01-07T12:10:57.790Z,560.00
2018-01-07T12:11:57.766Z,592.00
2018-01-07T12:12:57.741Z,612.00
2018-01-07T12:13:57.720Z,576.00
2018-01-07T12:14:57.701Z,548.00
2018-01-07T12:15:57.679Z,608.00
2018-01-07T12:16:57.670Z,592.00
2018-01-07T12:17:57.632Z,548.00
2018-01-07T12:18:57.612Z,564.00
2018-01-07T12:19:57.582Z,572.00
2018-01-07T12:20:57.562Z,500.00
2018-01-07T12:21:57.543Z,504.00
2018-01-07T12:22:57.520Z,540.00
2018-01-07T12:23:57.492Z,492.00
2018-01-07T12:24:57.470Z,488.00
2018-01-07T12:25:57.449Z,484.00
2018-01-07T12:26:57.431Z,448.00
2018-01-07T12:27:57.405Z,444.00
2018-01-07T12:28:57.377Z,492.00
2018-01-07T12:29:57.357Z,484.00
2018-01-07T12:30:57.333Z,472.00
2018-01-07T12:31:57.313Z,484.00
2018-01-07T12:32:57.291Z,492.00
2018-01-07T12:33:57.266Z,464.00
2018-01-07T12:34:57.241Z,464.00
2018-01-07T12:35:57.219Z,384.00
2018-01-07T12:36:57.197Z,440.00
2018-01-07T12:37:57.174Z,436.00
2018-01-07T12:38:57.148Z,436.00
2018-01-07T12:39:57.130Z,432.00
2018-01-07T12:40:57.113Z,412.00
2018-01-07T12:41:57.086Z,432.00
2018-01-07T12:45:23.842Z,424.00
2018-01-07T12:46:23.821Z,428.00
2018-01-07T12:47:23.803Z,424.00
2018-01-07T12:48:23.781Z,400.00
2018-01-07T12:49:23.753Z,404.00
2018-01-07T12:50:23.729Z,380.00
2018-01-07T12:51:23.708Z,376.00
2018-01-07T12:52:23.690Z,404.00
2018-01-07T12:53:23.665Z,400.00
2018-01-07T12:54:23.639Z,392.00
2018-01-07T12:55:23.615Z,396.00
2018-01-07T12:56:23.592Z,376.00
2018-01-07T12:57:23.570Z,388.00
2018-01-07T12:58:23.543Z,352.00
2018-01-07T12:59:23.534Z,376.00
2018-01-07T13:00:23.500Z,368.00
2018-01-07T13:01:23.481Z,356.00